createdAt,value
2018-12-10T00:00:12.182Z,5.61
2018-12-10T00:02:46.210Z,5.61
2018-12-10T00:05:17.209Z,5.55
2018-12-10T00:07:47.989Z,5.62
2018-12-10T00:10:18.749Z,5.67
2018-12-10T00:12:49.488Z,5.70
2018-12-10T00:15:20.240Z,5.70
2018-12-10T00:17:50.984Z,5.74
2018-12-10T00:20:21.837Z,5.78
2018-12-10T00:22:52.585Z,5.83
2018-12-10T00:25:23.318Z,5.77
2018-12-10T00:27:54.047Z,5.72
2018-12-10T00:30:24.917Z,5.72
2018-12-10T00:32:55.653Z,5.60
2018-12-10T00:35:26.429Z,5.64
2018-12-10T00:37:57.188Z,5.72
2018-12-10T00:40:28.070Z,5.71
2018-12-10T00:42:58.813Z,5.84
2018-12-10T00:45:36.734Z,5.87
2018-12-10T00:48:07.465Z,5.90
2018-12-10T00:50:38.330Z,5.82
2018-12-10T00:53:09.085Z,5.64
2018-12-10T00:55:39.917Z,4.76
2018-12-10T00:58:10.629Z,4.37
2018-12-10T01:00:41.372Z,4.15
2018-12-10T01:03:12.100Z,4.07
2018-12-10T01:05:42.872Z,3.95
2018-12-10T01:08:13.676Z,3.86
2018-12-10T01:10:44.425Z,3.88
2018-12-10T01:13:15.154Z,3.67
2018-12-10T01:15:45.920Z,3.77
2018-12-10T01:18:16.764Z,3.78
2018-12-10T01:20:47.791Z,3.76
2018-12-10T01:23:18.549Z,3.77
2018-12-10T01:25:49.336Z,3.92
2018-12-10T01:28:20.064Z,3.74
2018-12-10T01:30:50.865Z,3.88
2018-12-10T01:33:21.621Z,3.80
2018-12-10T01:35:52.392Z,3.95
2018-12-10T01:38:23.124Z,3.88
2018-12-10T01:40:53.889Z,3.88
2018-12-10T01:43:24.617Z,3.82
2018-12-10T01:45:55.464Z,3.80
2018-12-10T01:48:26.213Z,3.76
2018-12-10T01:50:57.020Z,3.75
2018-12-10T01:53:27.801Z,3.82
2018-12-10T01:55:58.588Z,3.89
2018-12-10T01:58:29.349Z,3.83
2018-12-10T02:01:00.109Z,3.86
2018-12-10T02:03:30.853Z,3.90
2018-12-10T02:06:01.637Z,3.95
2018-12-10T02:08:32.400Z,3.98
2018-12-10T02:11:03.181Z,3.98
2018-12-10T02:13:33.918Z,4.03
2018-12-10T02:16:04.713Z,4.13
2018-12-10T02:18:35.444Z,4.11
2018-12-10T02:21:06.226Z,4.20
2018-12-10T02:23:36.975Z,4.14
2018-12-10T02:26:07.751Z,4.05
2018-12-10T02:28:44.573Z,3.90
2018-12-10T02:31:15.538Z,3.93
2018-12-10T02:33:46.301Z,3.85
2018-12-10T02:36:17.110Z,3.90
2018-12-10T02:38:47.989Z,3.80
2018-12-10T02:41:18.781Z,3.76
2018-12-10T02:43:49.554Z,3.74
2018-12-10T02:46:20.320Z,3.68
2018-12-10T02:48:51.161Z,3.70
2018-12-10T02:51:22.091Z,3.65
2018-12-10T02:53:52.829Z,3.57
2018-12-10T02:56:23.595Z,3.58
2018-12-10T02:58:54.438Z,3.43
2018-12-10T03:01:25.227Z,3.55
2018-12-10T03:03:55.982Z,3.47
2018-12-10T03:06:26.869Z,3.45
2018-12-10T03:08:57.742Z,3.36
2018-12-10T03:11:28.768Z,3.42
2018-12-10T03:13:59.586Z,3.43
2018-12-10T03:16:30.462Z,3.28
2018-12-10T03:19:01.177Z,3.29
2018-12-10T03:21:32.039Z,3.26
2018-12-10T03:24:02.893Z,3.37
2018-12-10T03:26:33.662Z,3.46
2018-12-10T03:29:04.387Z,3.28
2018-12-10T03:31:35.152Z,3.31
2018-12-10T03:34:06.007Z,3.36
2018-12-10T03:36:36.881Z,3.42
2018-12-10T03:39:07.718Z,3.45
2018-12-10T03:41:38.494Z,3.47
2018-12-10T03:44:09.224Z,3.56
2018-12-10T03:46:39.992Z,3.58
2018-12-10T03:49:10.713Z,3.54
2018-12-10T03:51:41.651Z,3.53
2018-12-10T03:54:12.383Z,3.41
2018-12-10T03:56:43.493Z,3.38
2018-12-10T03:59:14.269Z,3.50
2018-12-10T04:01:45.135Z,3.46
2018-12-10T04:04:15.852Z,3.45
2018-12-10T04:06:46.631Z,3.37
2018-12-10T04:09:17.414Z,3.36
2018-12-10T04:11:48.307Z,3.45
2018-12-10T04:14:19.158Z,3.38
2018-12-10T04:16:50.025Z,3.54
2018-12-10T04:19:20.754Z,3.46
2018-12-10T04:21:51.516Z,3.47
2018-12-10T04:24:22.254Z,3.58
2018-12-10T04:26:53.021Z,3.69
2018-12-10T04:29:23.736Z,3.67
2018-12-10T04:31:54.505Z,3.64
2018-12-10T04:34:25.355Z,3.64
2018-12-10T04:36:56.231Z,3.66
2018-12-10T04:39:26.953Z,3.71
2018-12-10T04:41:57.712Z,3.93
2018-12-10T04:44:28.666Z,3.99
2018-12-10T04:46:59.440Z,3.95
2018-12-10T04:49:30.171Z,3.87
2018-12-10T04:52:00.922Z,3.90
2018-12-10T04:54:31.668Z,3.92
2018-12-10T04:57:02.432Z,3.90
2018-12-10T04:59:33.165Z,3.83
2018-12-10T05:02:03.950Z,3.91
2018-12-10T05:04:34.779Z,3.90
2018-12-10T05:07:05.646Z,3.89
2018-12-10T05:09:36.372Z,3.88
2018-12-10T05:12:07.154Z,3.95
2018-12-10T05:14:38.002Z,3.87
2018-12-10T05:17:08.760Z,3.84
2018-12-10T05:19:39.500Z,3.76
2018-12-10T05:22:10.396Z,3.69
2018-12-10T05:24:41.145Z,3.66
2018-12-10T05:27:11.871Z,3.68
2018-12-10T05:29:42.662Z,3.68
2018-12-10T05:32:13.408Z,3.60
2018-12-10T05:34:44.172Z,3.55
2018-12-10T05:37:21.832Z,3.49
2018-12-10T05:39:52.552Z,3.39
2018-12-10T05:42:23.318Z,3.26
2018-12-10T05:44:54.062Z,3.18
2018-12-10T05:47:24.830Z,3.18
2018-12-10T05:49:55.576Z,3.12
2018-12-10T05:52:26.321Z,3.09
2018-12-10T05:54:57.059Z,3.07
2018-12-10T05:57:33.793Z,2.93
2018-12-10T06:00:04.750Z,2.80
2018-12-10T06:02:35.516Z,2.80
2018-12-10T06:05:06.295Z,2.83
2018-12-10T06:07:37.065Z,2.75
2018-12-10T06:10:07.789Z,2.75
2018-12-10T06:12:38.556Z,2.68
2018-12-10T06:15:09.424Z,2.73
2018-12-10T06:17:40.657Z,2.69
2018-12-10T06:20:11.501Z,2.81
2018-12-10T06:22:42.275Z,2.97
2018-12-10T06:25:13.010Z,3.03
2018-12-10T06:27:43.877Z,3.06
2018-12-10T06:30:14.642Z,3.06
2018-12-10T06:32:45.583Z,3.14
2018-12-10T06:35:16.433Z,3.12
2018-12-10T06:37:47.194Z,3.10
2018-12-10T06:40:17.929Z,3.14
2018-12-10T06:42:48.672Z,3.06
2018-12-10T06:45:19.397Z,3.12
2018-12-10T06:47:50.180Z,3.00
2018-12-10T06:50:21.038Z,3.07
2018-12-10T06:52:51.798Z,3.08
2018-12-10T06:55:22.541Z,3.13
2018-12-10T06:57:53.333Z,3.19
2018-12-10T07:00:24.169Z,3.16
2018-12-10T07:02:54.922Z,3.19
2018-12-10T07:05:25.650Z,3.27
2018-12-10T07:07:56.412Z,3.31
2018-12-10T07:10:27.154Z,3.31
2018-12-10T07:13:04.962Z,3.38
2018-12-10T07:15:35.740Z,3.43
2018-12-10T07:18:06.512Z,3.44
2018-12-10T07:20:37.311Z,3.49
2018-12-10T07:23:08.103Z,3.45
2018-12-10T07:25:38.977Z,3.54
2018-12-10T07:28:09.753Z,3.54
2018-12-10T07:30:41.582Z,3.44
2018-12-10T07:33:12.593Z,3.42
2018-12-10T07:35:43.448Z,3.39
2018-12-10T07:38:14.210Z,3.40
2018-12-10T07:40:44.958Z,3.48
2018-12-10T07:43:15.707Z,3.57
2018-12-10T07:45:46.436Z,3.54
2018-12-10T07:48:17.215Z,3.58
2018-12-10T07:50:47.981Z,3.60
2018-12-10T07:53:18.741Z,3.68
2018-12-10T07:55:50.914Z,3.75
2018-12-10T07:58:28.895Z,3.83
2018-12-10T08:00:59.659Z,3.84
2018-12-10T08:03:30.449Z,4.00
2018-12-10T08:06:01.205Z,4.14
2018-12-10T08:08:32.073Z,4.33
2018-12-10T08:11:03.048Z,4.39
2018-12-10T08:13:33.818Z,4.55
2018-12-10T08:16:04.560Z,4.49
2018-12-10T08:18:35.345Z,4.46
2018-12-10T08:21:06.096Z,4.54
2018-12-10T08:23:36.870Z,4.60
2018-12-10T08:26:07.731Z,4.57
2018-12-10T08:28:38.492Z,4.69
2018-12-10T08:31:09.249Z,4.80
2018-12-10T08:33:39.997Z,4.87
2018-12-10T08:36:10.735Z,4.80
2018-12-10T08:38:41.493Z,4.63
2018-12-10T08:41:12.226Z,4.06
2018-12-10T08:43:42.997Z,4.43
2018-12-10T08:46:13.737Z,4.42
2018-12-10T08:48:44.605Z,4.41
2018-12-10T08:51:15.363Z,4.46
2018-12-10T08:53:46.378Z,4.25
2018-12-10T08:56:17.218Z,4.27
2018-12-10T08:58:47.993Z,4.40
2018-12-10T09:01:18.770Z,4.46
2018-12-10T09:03:49.533Z,4.51
2018-12-10T09:06:20.264Z,4.61
2018-12-10T09:08:51.018Z,4.57
2018-12-10T09:11:21.809Z,4.01
2018-12-10T09:13:52.617Z,4.63
2018-12-10T09:16:23.364Z,4.66
2018-12-10T09:18:54.129Z,4.88
2018-12-10T09:21:24.861Z,4.86
2018-12-10T09:23:55.709Z,4.93
2018-12-10T09:26:26.461Z,4.80
2018-12-10T09:28:57.243Z,4.90
2018-12-10T09:31:28.061Z,5.12
2018-12-10T09:33:58.952Z,5.49
2018-12-10T09:36:29.757Z,5.55
2018-12-10T09:39:00.566Z,5.78
2018-12-10T09:41:31.325Z,5.68
2018-12-10T09:44:02.519Z,5.50
2018-12-10T09:46:33.470Z,5.52
2018-12-10T09:49:04.423Z,5.81
2018-12-10T09:51:35.272Z,6.16
2018-12-10T09:54:06.090Z,6.48
2018-12-10T09:56:36.885Z,6.41
2018-12-10T09:59:07.716Z,6.22
2018-12-10T10:01:38.717Z,6.02
2018-12-10T10:04:09.612Z,5.86
2018-12-10T10:06:40.401Z,5.63
2018-12-10T10:09:11.278Z,5.50
2018-12-10T10:11:42.087Z,5.36
2018-12-10T10:14:12.868Z,5.28
2018-12-10T10:16:43.697Z,5.30
2018-12-10T10:19:14.564Z,5.36
2018-12-10T10:21:45.302Z,5.48
2018-12-10T10:24:16.141Z,5.48
2018-12-10T10:26:46.874Z,5.41
2018-12-10T10:29:17.683Z,5.47
2018-12-10T10:31:48.433Z,5.61
2018-12-10T10:34:19.194Z,5.60
2018-12-10T10:36:50.052Z,5.49
2018-12-10T10:39:21.069Z,5.79
2018-12-10T10:41:51.815Z,5.96
2018-12-10T10:44:22.589Z,5.65
2018-12-10T10:46:53.359Z,5.76
2018-12-10T10:49:24.136Z,6.12
2018-12-10T10:51:54.890Z,6.28
2018-12-10T10:54:25.877Z,6.25
2018-12-10T10:56:56.754Z,6.19
2018-12-10T10:59:27.513Z,6.06
2018-12-10T11:01:59.558Z,6.32
2018-12-10T11:04:37.694Z,6.37
2018-12-10T11:07:03.306Z,6.08
2018-12-10T11:09:34.101Z,5.90
2018-12-10T11:12:04.837Z,6.03
2018-12-10T11:14:35.573Z,6.16
2018-12-10T11:17:06.321Z,6.78
2018-12-10T11:19:37.142Z,7.08
2018-12-10T11:22:07.860Z,6.73
2018-12-10T11:24:45.629Z,6.23
2018-12-10T11:27:16.405Z,6.24
2018-12-10T11:29:47.178Z,5.97
2018-12-10T11:32:18.016Z,5.73
2018-12-10T11:34:48.797Z,5.36
2018-12-10T11:37:19.609Z,5.00
2018-12-10T11:39:50.503Z,4.50
2018-12-10T11:42:21.240Z,4.14
2018-12-10T11:44:52.027Z,3.93
2018-12-10T11:47:22.860Z,3.65
2018-12-10T11:49:53.625Z,3.42
2018-12-10T11:52:24.360Z,3.46
2018-12-10T11:54:55.124Z,3.29
2018-12-10T11:57:25.869Z,3.29
2018-12-10T11:59:56.647Z,3.12
2018-12-10T12:02:29.827Z,2.86
2018-12-10T12:05:00.281Z,2.59
2018-12-10T12:07:31.036Z,2.46
2018-12-10T12:10:02.529Z,2.47
2018-12-10T12:12:33.316Z,2.49
2018-12-10T12:15:04.895Z,2.22
2018-12-10T12:17:35.718Z,2.12
2018-12-10T12:20:08.296Z,2.20
2018-12-10T12:22:39.032Z,2.32
2018-12-10T12:25:10.062Z,2.54
2018-12-10T12:27:40.804Z,2.68
2018-12-10T12:30:11.670Z,2.85
2018-12-10T12:32:42.469Z,2.97
2018-12-10T12:35:13.352Z,2.77
2018-12-10T12:37:44.246Z,2.58
2018-12-10T12:40:15.027Z,2.39
2018-12-10T12:42:45.778Z,2.30
2018-12-10T12:45:16.684Z,2.22
2018-12-10T12:47:47.404Z,2.34
2018-12-10T12:50:18.225Z,2.52
2018-12-10T12:52:49.061Z,2.62
2018-12-10T12:55:20.017Z,2.75
2018-12-10T12:57:50.846Z,2.77
2018-12-10T13:00:26.967Z,2.85
2018-12-10T13:02:54.539Z,2.89
2018-12-10T13:05:25.490Z,3.01
2018-12-10T13:07:56.352Z,3.02
2018-12-10T13:10:27.126Z,3.09
2018-12-10T13:12:57.886Z,3.33
2018-12-10T13:15:28.639Z,3.49
2018-12-10T13:17:59.381Z,3.54
2018-12-10T13:20:30.183Z,3.46
2018-12-10T13:23:00.958Z,3.49
2018-12-10T13:25:31.785Z,3.47
2018-12-10T13:28:02.575Z,3.37
2018-12-10T13:30:33.481Z,3.38
2018-12-10T13:33:04.521Z,3.35
2018-12-10T13:38:07.806Z,3.30
2018-12-10T13:40:39.033Z,3.14
2018-12-10T13:43:09.789Z,3.05
2018-12-10T13:45:40.596Z,2.90
2018-12-10T13:48:11.391Z,2.75
2018-12-10T13:50:42.169Z,2.71
2018-12-10T13:53:12.958Z,2.62
2018-12-10T13:55:43.803Z,2.71
2018-12-10T13:58:14.584Z,2.74
2018-12-10T14:00:50.886Z,2.87
2018-12-10T14:03:18.214Z,2.92
2018-12-10T14:05:48.979Z,3.04
2018-12-10T14:08:19.742Z,3.07
2018-12-10T14:10:50.513Z,3.30
2018-12-10T14:13:21.301Z,3.41
2018-12-10T14:15:52.173Z,3.47
2018-12-10T14:18:23.073Z,3.51
2018-12-10T14:20:53.901Z,3.71
2018-12-10T14:23:24.761Z,3.86
2018-12-10T14:25:55.541Z,3.90
2018-12-10T14:28:26.389Z,3.70
2018-12-10T14:30:57.921Z,3.46
2018-12-10T14:33:28.895Z,3.36
2018-12-10T14:36:00.025Z,3.15
2018-12-10T14:38:30.792Z,3.11
2018-12-10T14:41:01.573Z,3.06
2018-12-10T14:43:32.513Z,3.01
2018-12-10T14:46:03.426Z,2.90
2018-12-10T14:48:34.177Z,2.34
2018-12-10T14:51:05.079Z,2.22
2018-12-10T14:53:35.821Z,2.14
2018-12-10T14:56:06.604Z,1.98
2018-12-10T14:58:37.573Z,1.92
2018-12-10T15:01:08.446Z,1.95
2018-12-10T15:03:39.252Z,1.93
2018-12-10T15:06:10.045Z,2.14
2018-12-10T15:08:40.773Z,2.20
2018-12-10T15:11:11.549Z,2.20
2018-12-10T15:13:42.282Z,2.29
2018-12-10T15:16:13.038Z,2.34
2018-12-10T15:18:43.768Z,2.28
2018-12-10T15:21:14.551Z,2.27
2018-12-10T15:23:45.419Z,2.31
2018-12-10T15:26:16.207Z,2.37
2018-12-10T15:28:46.949Z,2.34
2018-12-10T15:31:18.049Z,2.33
2018-12-10T15:33:48.890Z,2.38
2018-12-10T15:36:19.753Z,2.37
2018-12-10T15:38:50.497Z,2.44
2018-12-10T15:41:21.310Z,2.50
2018-12-10T15:43:52.122Z,2.52
2018-12-10T15:46:22.917Z,2.59
2018-12-10T15:48:53.658Z,2.62
2018-12-10T15:51:24.460Z,2.69
2018-12-10T15:53:55.208Z,2.68
2018-12-10T15:56:25.999Z,2.65
2018-12-10T15:58:56.835Z,2.66
2018-12-10T16:01:27.700Z,2.64
2018-12-10T16:03:58.441Z,2.63
2018-12-10T16:06:29.232Z,2.56
2018-12-10T16:08:59.960Z,2.67
2018-12-10T16:11:30.794Z,2.63
2018-12-10T16:14:01.545Z,2.64
2018-12-10T16:16:32.429Z,2.56
2018-12-10T16:19:03.168Z,2.54
2018-12-10T16:21:33.933Z,2.57
2018-12-10T16:24:04.690Z,2.60
2018-12-10T16:26:35.469Z,2.63
2018-12-10T16:29:06.245Z,2.68
2018-12-10T16:31:37.026Z,2.73
2018-12-10T16:34:07.777Z,2.69
2018-12-10T16:36:38.655Z,2.59
2018-12-10T16:39:09.429Z,2.61
2018-12-10T16:44:17.941Z,2.64
2018-12-10T16:46:48.713Z,2.70
2018-12-10T16:49:19.461Z,2.78
2018-12-10T16:51:50.290Z,2.76
2018-12-10T16:54:21.023Z,2.81
2018-12-10T16:56:51.898Z,2.86
2018-12-10T16:59:22.634Z,2.88
2018-12-10T17:01:53.432Z,2.88
2018-12-10T17:04:24.165Z,2.94
2018-12-10T17:06:55.002Z,2.93
2018-12-10T17:09:26.153Z,2.94
2018-12-10T17:11:57.452Z,3.00
2018-12-10T17:14:29.109Z,2.97
2018-12-10T17:16:59.882Z,2.98
2018-12-10T17:19:30.620Z,2.94
2018-12-10T17:22:01.501Z,2.87
2018-12-10T17:24:32.260Z,2.93
2018-12-10T17:27:03.165Z,2.90
2018-12-10T17:29:33.913Z,2.92
2018-12-10T17:32:04.781Z,2.99
2018-12-10T17:34:35.575Z,2.93
2018-12-10T17:37:06.445Z,2.96
2018-12-10T17:39:37.217Z,2.98
2018-12-10T17:42:08.417Z,2.96
2018-12-10T17:44:39.170Z,3.00
2018-12-10T17:47:09.952Z,3.02
2018-12-10T17:49:41.028Z,3.02
2018-12-10T17:52:11.800Z,3.00
2018-12-10T17:54:42.603Z,3.07
2018-12-10T17:57:13.443Z,3.05
2018-12-10T17:59:44.173Z,3.09
2018-12-10T18:02:14.977Z,3.15
2018-12-10T18:04:45.729Z,3.09
2018-12-10T18:07:16.494Z,3.18
2018-12-10T18:09:47.234Z,3.19
2018-12-10T18:12:18.010Z,3.14
2018-12-10T18:14:48.845Z,3.11
2018-12-10T18:17:19.899Z,2.98
2018-12-10T18:19:50.643Z,2.68
2018-12-10T18:22:21.448Z,2.38
2018-12-10T18:24:52.200Z,2.30
2018-12-10T18:27:23.067Z,2.27
2018-12-10T18:29:53.811Z,2.25
2018-12-10T18:32:24.569Z,2.24
2018-12-10T18:34:55.301Z,2.25
2018-12-10T18:37:26.105Z,2.20
2018-12-10T18:39:56.964Z,2.34
2018-12-10T18:42:27.697Z,2.39
2018-12-10T18:44:58.431Z,2.33
2018-12-10T18:47:29.317Z,2.29
2018-12-10T18:50:00.136Z,2.20
2018-12-10T18:52:30.925Z,2.14
2018-12-10T18:55:02.093Z,1.67
2018-12-10T18:57:32.893Z,1.27
2018-12-10T19:00:07.600Z,1.08
2018-12-10T19:02:38.599Z,1.02
2018-12-10T19:05:09.353Z,1.00
2018-12-10T19:07:40.128Z,1.05
2018-12-10T19:10:10.885Z,1.15
2018-12-10T19:12:42.011Z,1.19
2018-12-10T19:15:12.971Z,1.18
2018-12-10T19:17:43.850Z,1.23
2018-12-10T19:20:14.584Z,1.22
2018-12-10T19:22:45.424Z,1.20
2018-12-10T19:25:16.168Z,1.19
2018-12-10T19:27:53.965Z,1.14
2018-12-10T19:30:24.718Z,1.10
2018-12-10T19:32:55.487Z,1.19
2018-12-10T19:35:26.226Z,1.26
2018-12-10T19:37:56.966Z,1.35
2018-12-10T19:40:27.690Z,1.35
2018-12-10T19:42:58.441Z,1.34
2018-12-10T19:45:29.284Z,1.29
2018-12-10T19:48:00.077Z,1.39
2018-12-10T19:50:31.021Z,1.36
2018-12-10T19:53:01.912Z,1.37
2018-12-10T19:55:32.776Z,1.34
2018-12-10T19:58:03.643Z,1.42
2018-12-10T20:00:34.377Z,1.56
2018-12-10T20:03:05.358Z,1.64
2018-12-10T20:05:42.356Z,1.66
2018-12-10T20:08:13.154Z,1.64
2018-12-10T20:10:43.872Z,1.68
2018-12-10T20:13:14.682Z,1.71
2018-12-10T20:15:45.433Z,1.71
2018-12-10T20:18:16.205Z,1.62
2018-12-10T20:20:46.941Z,1.52
2018-12-10T20:23:17.860Z,1.43
2018-12-10T20:25:48.613Z,1.57
2018-12-10T20:28:19.413Z,1.68
2018-12-10T20:30:51.670Z,1.71
2018-12-10T20:33:22.597Z,1.70
2018-12-10T20:35:53.344Z,1.60
2018-12-10T20:38:24.353Z,1.68
2018-12-10T20:40:55.181Z,1.65
2018-12-10T20:43:26.779Z,1.61
2018-12-10T20:45:57.521Z,1.57
2018-12-10T20:48:28.292Z,1.48
2018-12-10T20:50:59.028Z,1.50
2018-12-10T20:53:29.801Z,1.64
2018-12-10T20:56:00.556Z,1.67
2018-12-10T20:58:31.673Z,1.59
2018-12-10T21:01:02.596Z,1.46
2018-12-10T21:03:33.353Z,1.36
2018-12-10T21:06:10.022Z,1.35
2018-12-10T21:08:40.802Z,1.34
2018-12-10T21:11:11.572Z,1.26
2018-12-10T21:13:42.365Z,1.25
2018-12-10T21:16:13.248Z,1.33
2018-12-10T21:18:44.064Z,1.42
2018-12-10T21:21:14.819Z,1.42
2018-12-10T21:23:45.570Z,1.45
2018-12-10T21:26:16.310Z,1.53
2018-12-10T21:28:47.076Z,1.51
2018-12-10T21:31:17.849Z,1.45
2018-12-10T21:33:48.625Z,1.51
2018-12-10T21:36:19.404Z,0.98
2018-12-10T21:38:50.207Z,1.22
2018-12-10T21:41:21.008Z,1.14
2018-12-10T21:43:51.774Z,1.24
2018-12-10T21:46:23.020Z,1.22
2018-12-10T21:48:53.812Z,1.39
2018-12-10T21:51:24.545Z,1.46
2018-12-10T21:53:55.309Z,1.49
2018-12-10T21:56:26.032Z,1.53
2018-12-10T21:58:56.785Z,1.57
2018-12-10T22:01:27.565Z,1.65
2018-12-10T22:03:58.441Z,1.71
2018-12-10T22:06:29.302Z,1.78
2018-12-10T22:09:00.065Z,1.75
2018-12-10T22:11:30.807Z,1.81
2018-12-10T22:14:01.913Z,1.72
2018-12-10T22:16:32.674Z,1.76
2018-12-10T22:19:03.452Z,1.89
2018-12-10T22:21:34.191Z,1.87
2018-12-10T22:24:04.952Z,1.86
2018-12-10T22:26:35.704Z,1.88
2018-12-10T22:29:06.476Z,1.82
2018-12-10T22:31:37.208Z,1.90
2018-12-10T22:34:07.961Z,1.90
2018-12-10T22:36:38.681Z,1.89
2018-12-10T22:39:09.425Z,1.88
2018-12-10T22:41:40.164Z,1.85
2018-12-10T22:44:10.910Z,1.90
2018-12-10T22:46:41.644Z,1.90
2018-12-10T22:49:12.508Z,1.85
2018-12-10T22:51:43.225Z,1.86
2018-12-10T22:54:13.940Z,1.86
2018-12-10T22:56:44.681Z,1.89
2018-12-10T22:59:15.429Z,1.94
2018-12-10T23:01:46.276Z,1.94
2018-12-10T23:04:17.081Z,1.99
2018-12-10T23:06:47.811Z,1.99
2018-12-10T23:09:18.582Z,2.00
2018-12-10T23:11:49.404Z,2.02
2018-12-10T23:14:20.158Z,1.99
2018-12-10T23:16:50.901Z,2.04
2018-12-10T23:19:21.661Z,2.01
2018-12-10T23:21:52.397Z,2.00
2018-12-10T23:24:23.129Z,2.03
2018-12-10T23:26:53.863Z,2.05
2018-12-10T23:29:24.659Z,2.01
2018-12-10T23:31:55.430Z,2.03
2018-12-10T23:34:26.209Z,2.03
2018-12-10T23:36:57.193Z,1.89
2018-12-10T23:39:27.993Z,2.09
2018-12-10T23:41:58.778Z,2.03
2018-12-10T23:44:35.715Z,2.01
2018-12-10T23:47:06.553Z,2.06
2018-12-10T23:49:37.329Z,2.07
2018-12-10T23:52:08.084Z,2.05
2018-12-10T23:54:39.122Z,2.01
2018-12-10T23:57:09.875Z,2.04
2018-12-10T23:59:41.040Z,1.55
